sensor_id;sensor_type;location;lat;lon;timestamp;temperature;humidity
4677;DHT22;2352;48.180;11.478;2022-12-07T00:01:54;6.70;97.80
4677;DHT22;2352;48.180;11.478;2022-12-07T00:04:58;6.70;97.80
4677;DHT22;2352;48.180;11.478;2022-12-07T00:08:01;6.60;97.80
4677;DHT22;2352;48.180;11.478;2022-12-07T00:11:06;6.70;97.80
4677;DHT22;2352;48.180;11.478;2022-12-07T00:14:11;6.60;97.80
4677;DHT22;2352;48.180;11.478;2022-12-07T00:17:14;6.60;97.70
4677;DHT22;2352;48.180;11.478;2022-12-07T00:20:18;6.60;98.00
4677;DHT22;2352;48.180;11.478;2022-12-07T00:23:21;6.60;97.90
4677;DHT22;2352;48.180;11.478;2022-12-07T00:26:26;6.60;97.90
4677;DHT22;2352;48.180;11.478;2022-12-07T00:29:30;6.50;97.90
4677;DHT22;2352;48.180;11.478;2022-12-07T00:32:32;6.50;97.90
4677;DHT22;2352;48.180;11.478;2022-12-07T00:35:37;6.50;97.90
4677;DHT22;2352;48.180;11.478;2022-12-07T00:38:40;6.50;97.90
4677;DHT22;2352;48.180;11.478;2022-12-07T00:41:44;6.60;97.70
4677;DHT22;2352;48.180;11.478;2022-12-07T00:44:46;6.60;97.60
4677;DHT22;2352;48.180;11.478;2022-12-07T00:47:49;6.50;97.70
4677;DHT22;2352;48.180;11.478;2022-12-07T00:50:54;6.60;97.60
4677;DHT22;2352;48.180;11.478;2022-12-07T00:53:57;6.60;97.50
4677;DHT22;2352;48.180;11.478;2022-12-07T00:57:00;6.50;97.50
4677;DHT22;2352;48.180;11.478;2022-12-07T01:00:03;6.50;97.60
4677;DHT22;2352;48.180;11.478;2022-12-07T01:03:08;6.50;97.50
4677;DHT22;2352;48.180;11.478;2022-12-07T01:06:15;6.50;97.60
4677;DHT22;2352;48.180;11.478;2022-12-07T01:09:19;6.50;97.50
4677;DHT22;2352;48.180;11.478;2022-12-07T01:12:22;6.50;97.60
4677;DHT22;2352;48.180;11.478;2022-12-07T01:15:25;6.50;97.50
4677;DHT22;2352;48.180;11.478;2022-12-07T01:18:29;6.60;97.60
4677;DHT22;2352;48.180;11.478;2022-12-07T01:21:35;6.60;97.50
4677;DHT22;2352;48.180;11.478;2022-12-07T01:24:39;6.60;97.50
4677;DHT22;2352;48.180;11.478;2022-12-07T01:27:42;6.60;97.40
4677;DHT22;2352;48.180;11.478;2022-12-07T01:30:45;6.50;97.50
4677;DHT22;2352;48.180;11.478;2022-12-07T01:33:58;6.50;97.50
4677;DHT22;2352;48.180;11.478;2022-12-07T01:37:03;6.40;97.60
4677;DHT22;2352;48.180;11.478;2022-12-07T01:40:08;6.40;97.70
4677;DHT22;2352;48.180;11.478;2022-12-07T01:43:16;6.40;97.70
4677;DHT22;2352;48.180;11.478;2022-12-07T01:46:20;6.40;97.80
4677;DHT22;2352;48.180;11.478;2022-12-07T01:49:28;6.40;97.70
4677;DHT22;2352;48.180;11.478;2022-12-07T01:52:35;6.50;97.70
4677;DHT22;2352;48.180;11.478;2022-12-07T01:55:42;6.30;97.90
4677;DHT22;2352;48.180;11.478;2022-12-07T01:58:46;6.30;98.00
4677;DHT22;2352;48.180;11.478;2022-12-07T02:01:50;6.40;97.80
4677;DHT22;2352;48.180;11.478;2022-12-07T02:04:55;6.40;97.80
4677;DHT22;2352;48.180;11.478;2022-12-07T02:08:01;6.40;97.80
4677;DHT22;2352;48.180;11.478;2022-12-07T02:11:07;6.40;97.90
4677;DHT22;2352;48.180;11.478;2022-12-07T02:14:10;6.40;97.80
4677;DHT22;2352;48.180;11.478;2022-12-07T02:17:17;6.40;97.70
4677;DHT22;2352;48.180;11.478;2022-12-07T02:20:28;6.40;97.90
4677;DHT22;2352;48.180;11.478;2022-12-07T02:23:41;6.40;97.90
4677;DHT22;2352;48.180;11.478;2022-12-07T02:27:07;6.40;97.80
4677;DHT22;2352;48.180;11.478;2022-12-07T02:30:15;6.40;97.70
4677;DHT22;2352;48.180;11.478;2022-12-07T02:33:25;6.40;97.90
4677;DHT22;2352;48.180;11.478;2022-12-07T02:36:34;6.30;98.00
4677;DHT22;2352;48.180;11.478;2022-12-07T02:39:44;6.30;98.10
4677;DHT22;2352;48.180;11.478;2022-12-07T02:42:53;6.30;98.00
4677;DHT22;2352;48.180;11.478;2022-12-07T02:46:02;6.30;98.00
4677;DHT22;2352;48.180;11.478;2022-12-07T02:49:07;6.40;98.00
4677;DHT22;2352;48.180;11.478;2022-12-07T02:52:11;6.40;97.90
4677;DHT22;2352;48.180;11.478;2022-12-07T02:55:17;6.40;97.90
4677;DHT22;2352;48.180;11.478;2022-12-07T02:58:30;6.40;97.90
4677;DHT22;2352;48.180;11.478;2022-12-07T03:01:41;6.40;97.80
4677;DHT22;2352;48.180;11.478;2022-12-07T03:04:54;6.40;97.70
4677;DHT22;2352;48.180;11.478;2022-12-07T03:08:02;6.30;97.80
4677;DHT22;2352;48.180;11.478;2022-12-07T03:11:10;6.30;97.90
4677;DHT22;2352;48.180;11.478;2022-12-07T03:14:23;6.40;97.90
4677;DHT22;2352;48.180;11.478;2022-12-07T03:17:32;6.40;97.80
4677;DHT22;2352;48.180;11.478;2022-12-07T03:20:38;6.30;97.90
4677;DHT22;2352;48.180;11.478;2022-12-07T03:23:45;6.30;97.90
4677;DHT22;2352;48.180;11.478;2022-12-07T03:26:52;6.30;97.90
4677;DHT22;2352;48.180;11.478;2022-12-07T03:30:00;6.20;98.00
4677;DHT22;2352;48.180;11.478;2022-12-07T03:33:10;6.20;98.10
4677;DHT22;2352;48.180;11.478;2022-12-07T03:36:19;6.30;98.00
4677;DHT22;2352;48.180;11.478;2022-12-07T03:39:26;6.20;98.00
4677;DHT22;2352;48.180;11.478;2022-12-07T03:42:31;6.30;98.10
4677;DHT22;2352;48.180;11.478;2022-12-07T03:45:39;6.30;98.10
4677;DHT22;2352;48.180;11.478;2022-12-07T03:48:49;6.30;97.90
4677;DHT22;2352;48.180;11.478;2022-12-07T03:52:00;6.30;98.00
4677;DHT22;2352;48.180;11.478;2022-12-07T03:55:08;6.30;98.10
4677;DHT22;2352;48.180;11.478;2022-12-07T03:58:15;6.30;97.90
4677;DHT22;2352;48.180;11.478;2022-12-07T04:01:19;6.30;98.00
4677;DHT22;2352;48.180;11.478;2022-12-07T04:04:24;6.40;98.00
4677;DHT22;2352;48.180;11.478;2022-12-07T04:07:27;6.40;98.00
4677;DHT22;2352;48.180;11.478;2022-12-07T04:10:30;6.40;98.00
4677;DHT22;2352;48.180;11.478;2022-12-07T04:13:33;6.30;98.20
4677;DHT22;2352;48.180;11.478;2022-12-07T04:16:58;6.30;98.20
4677;DHT22;2352;48.180;11.478;2022-12-07T04:20:03;6.40;98.20
4677;DHT22;2352;48.180;11.478;2022-12-07T04:23:06;6.30;98.40
4677;DHT22;2352;48.180;11.478;2022-12-07T04:26:09;6.30;98.30
4677;DHT22;2352;48.180;11.478;2022-12-07T04:29:13;6.30;98.50
4677;DHT22;2352;48.180;11.478;2022-12-07T04:32:16;6.30;98.60
4677;DHT22;2352;48.180;11.478;2022-12-07T04:35:20;6.30;98.70
4677;DHT22;2352;48.180;11.478;2022-12-07T04:38:23;6.20;98.80
4677;DHT22;2352;48.180;11.478;2022-12-07T04:41:26;6.20;98.90
4677;DHT22;2352;48.180;11.478;2022-12-07T04:44:30;6.20;99.00
4677;DHT22;2352;48.180;11.478;2022-12-07T04:47:33;6.20;99.10
4677;DHT22;2352;48.180;11.478;2022-12-07T04:50:37;6.10;99.20
4677;DHT22;2352;48.180;11.478;2022-12-07T04:53:46;6.10;99.30
4677;DHT22;2352;48.180;11.478;2022-12-07T04:56:50;6.20;99.30
4677;DHT22;2352;48.180;11.478;2022-12-07T04:59:53;6.20;99.30
4677;DHT22;2352;48.180;11.478;2022-12-07T05:02:55;6.20;99.40
4677;DHT22;2352;48.180;11.478;2022-12-07T05:06:00;6.10;99.20
4677;DHT22;2352;48.180;11.478;2022-12-07T05:09:03;6.10;99.30
4677;DHT22;2352;48.180;11.478;2022-12-07T05:12:06;6.10;99.40
4677;DHT22;2352;48.180;11.478;2022-12-07T05:15:10;6.10;99.50
4677;DHT22;2352;48.180;11.478;2022-12-07T05:18:13;6.00;99.50
4677;DHT22;2352;48.180;11.478;2022-12-07T05:21:17;6.00;99.40
4677;DHT22;2352;48.180;11.478;2022-12-07T05:24:20;6.00;99.30
4677;DHT22;2352;48.180;11.478;2022-12-07T05:27:23;6.00;99.40
4677;DHT22;2352;48.180;11.478;2022-12-07T05:30:26;6.10;99.40
4677;DHT22;2352;48.180;11.478;2022-12-07T05:33:32;6.10;99.20
4677;DHT22;2352;48.180;11.478;2022-12-07T05:36:36;6.00;99.20
4677;DHT22;2352;48.180;11.478;2022-12-07T05:39:39;6.00;99.30
4677;DHT22;2352;48.180;11.478;2022-12-07T05:42:44;6.00;99.30
4677;DHT22;2352;48.180;11.478;2022-12-07T05:45:47;5.90;99.40
4677;DHT22;2352;48.180;11.478;2022-12-07T05:48:50;6.00;99.40
4677;DHT22;2352;48.180;11.478;2022-12-07T05:51:54;6.00;99.20
4677;DHT22;2352;48.180;11.478;2022-12-07T05:54:57;6.00;99.10
4677;DHT22;2352;48.180;11.478;2022-12-07T05:58:00;5.80;99.50
4677;DHT22;2352;48.180;11.478;2022-12-07T06:01:20;5.80;99.50
4677;DHT22;2352;48.180;11.478;2022-12-07T06:04:25;5.80;99.50
4677;DHT22;2352;48.180;11.478;2022-12-07T06:07:29;5.80;99.60
4677;DHT22;2352;48.180;11.478;2022-12-07T06:10:32;5.80;99.70
4677;DHT22;2352;48.180;11.478;2022-12-07T06:13:35;5.80;99.60
4677;DHT22;2352;48.180;11.478;2022-12-07T06:16:41;5.80;99.50
4677;DHT22;2352;48.180;11.478;2022-12-07T06:19:44;5.90;99.60
4677;DHT22;2352;48.180;11.478;2022-12-07T06:22:49;5.90;99.60
4677;DHT22;2352;48.180;11.478;2022-12-07T06:25:52;5.90;99.40
4677;DHT22;2352;48.180;11.478;2022-12-07T06:28:55;5.90;99.50
4677;DHT22;2352;48.180;11.478;2022-12-07T06:31:58;5.80;99.40
4677;DHT22;2352;48.180;11.478;2022-12-07T06:35:01;5.80;99.60
4677;DHT22;2352;48.180;11.478;2022-12-07T06:38:05;5.70;99.80
4677;DHT22;2352;48.180;11.478;2022-12-07T06:41:08;5.80;99.60
4677;DHT22;2352;48.180;11.478;2022-12-07T06:44:11;5.80;99.60
4677;DHT22;2352;48.180;11.478;2022-12-07T06:47:14;5.80;99.40
4677;DHT22;2352;48.180;11.478;2022-12-07T06:50:37;5.80;99.50
4677;DHT22;2352;48.180;11.478;2022-12-07T06:53:41;5.90;99.50
4677;DHT22;2352;48.180;11.478;2022-12-07T06:56:44;5.80;99.30
4677;DHT22;2352;48.180;11.478;2022-12-07T06:59:47;5.80;99.30
4677;DHT22;2352;48.180;11.478;2022-12-07T07:02:50;5.80;99.40
4677;DHT22;2352;48.180;11.478;2022-12-07T07:05:53;5.80;99.40
4677;DHT22;2352;48.180;11.478;2022-12-07T07:08:57;5.80;99.30
4677;DHT22;2352;48.180;11.478;2022-12-07T07:12:00;5.70;99.30
4677;DHT22;2352;48.180;11.478;2022-12-07T07:15:04;5.70;99.20
4677;DHT22;2352;48.180;11.478;2022-12-07T07:18:07;5.80;99.10
4677;DHT22;2352;48.180;11.478;2022-12-07T07:21:10;5.70;99.20
4677;DHT22;2352;48.180;11.478;2022-12-07T07:24:15;5.70;99.10
4677;DHT22;2352;48.180;11.478;2022-12-07T07:27:17;5.70;99.20
4677;DHT22;2352;48.180;11.478;2022-12-07T07:30:21;5.70;99.40
4677;DHT22;2352;48.180;11.478;2022-12-07T07:33:24;5.70;99.20
4677;DHT22;2352;48.180;11.478;2022-12-07T07:36:26;5.60;99.30
4677;DHT22;2352;48.180;11.478;2022-12-07T07:39:31;5.50;99.70
4677;DHT22;2352;48.180;11.478;2022-12-07T07:42:34;5.50;99.50
4677;DHT22;2352;48.180;11.478;2022-12-07T07:45:37;5.60;99.40
4677;DHT22;2352;48.180;11.478;2022-12-07T07:48:40;5.50;99.50
4677;DHT22;2352;48.180;11.478;2022-12-07T07:51:42;5.50;99.50
4677;DHT22;2352;48.180;11.478;2022-12-07T07:54:47;5.50;99.50
4677;DHT22;2352;48.180;11.478;2022-12-07T07:57:50;5.50;99.50
4677;DHT22;2352;48.180;11.478;2022-12-07T08:00:55;5.50;99.80
4677;DHT22;2352;48.180;11.478;2022-12-07T08:03:58;5.50;99.50
4677;DHT22;2352;48.180;11.478;2022-12-07T08:07:01;5.50;99.60
4677;DHT22;2352;48.180;11.478;2022-12-07T08:10:07;5.50;99.50
4677;DHT22;2352;48.180;11.478;2022-12-07T08:13:11;5.50;99.50
4677;DHT22;2352;48.180;11.478;2022-12-07T08:16:15;5.50;99.50
4677;DHT22;2352;48.180;11.478;2022-12-07T08:19:19;5.50;99.60
4677;DHT22;2352;48.180;11.478;2022-12-07T08:22:21;5.50;99.50
4677;DHT22;2352;48.180;11.478;2022-12-07T08:25:27;5.60;99.50
4677;DHT22;2352;48.180;11.478;2022-12-07T08:28:30;5.70;99.40
4677;DHT22;2352;48.180;11.478;2022-12-07T08:31:33;5.70;99.10
4677;DHT22;2352;48.180;11.478;2022-12-07T08:34:36;5.60;99.70
4677;DHT22;2352;48.180;11.478;2022-12-07T08:37:40;5.60;99.90
4677;DHT22;2352;48.180;11.478;2022-12-07T08:40:45;5.70;99.90
4677;DHT22;2352;48.180;11.478;2022-12-07T08:43:48;5.70;99.80
4677;DHT22;2352;48.180;11.478;2022-12-07T08:46:53;5.80;99.80
4677;DHT22;2352;48.180;11.478;2022-12-07T08:49:57;5.80;99.40
4677;DHT22;2352;48.180;11.478;2022-12-07T08:53:05;5.70;99.00
4677;DHT22;2352;48.180;11.478;2022-12-07T08:56:10;5.70;99.60
4677;DHT22;2352;48.180;11.478;2022-12-07T08:59:15;5.70;99.20
4677;DHT22;2352;48.180;11.478;2022-12-07T09:02:19;5.80;99.20
4677;DHT22;2352;48.180;11.478;2022-12-07T09:05:22;5.90;99.50
4677;DHT22;2352;48.180;11.478;2022-12-07T09:08:28;6.00;99.10
4677;DHT22;2352;48.180;11.478;2022-12-07T09:11:33;6.00;98.70
4677;DHT22;2352;48.180;11.478;2022-12-07T09:14:36;6.00;98.50
4677;DHT22;2352;48.180;11.478;2022-12-07T09:17:39;6.00;98.30
4677;DHT22;2352;48.180;11.478;2022-12-07T09:20:42;6.00;98.20
4677;DHT22;2352;48.180;11.478;2022-12-07T09:23:45;6.00;97.90
4677;DHT22;2352;48.180;11.478;2022-12-07T09:26:49;6.00;98.00
4677;DHT22;2352;48.180;11.478;2022-12-07T09:29:53;6.00;97.80
4677;DHT22;2352;48.180;11.478;2022-12-07T09:32:56;6.00;98.00
4677;DHT22;2352;48.180;11.478;2022-12-07T09:35:59;6.10;98.10
4677;DHT22;2352;48.180;11.478;2022-12-07T09:39:03;6.10;97.50
4677;DHT22;2352;48.180;11.478;2022-12-07T09:42:08;6.10;97.80
4677;DHT22;2352;48.180;11.478;2022-12-07T09:45:15;6.00;97.80
4677;DHT22;2352;48.180;11.478;2022-12-07T09:48:22;6.10;97.90
4677;DHT22;2352;48.180;11.478;2022-12-07T09:51:27;6.10;98.00
4677;DHT22;2352;48.180;11.478;2022-12-07T09:54:30;6.10;97.80
4677;DHT22;2352;48.180;11.478;2022-12-07T09:57:34;6.20;97.90
4677;DHT22;2352;48.180;11.478;2022-12-07T10:00:39;6.20;97.80
4677;DHT22;2352;48.180;11.478;2022-12-07T10:03:48;6.30;96.90
4677;DHT22;2352;48.180;11.478;2022-12-07T10:06:52;6.20;97.00
4677;DHT22;2352;48.180;11.478;2022-12-07T10:09:54;6.20;97.10
4677;DHT22;2352;48.180;11.478;2022-12-07T10:13:01;6.30;97.00
4677;DHT22;2352;48.180;11.478;2022-12-07T10:16:05;6.20;97.00
4677;DHT22;2352;48.180;11.478;2022-12-07T10:19:22;6.20;97.10
4677;DHT22;2352;48.180;11.478;2022-12-07T10:22:25;6.20;96.90
4677;DHT22;2352;48.180;11.478;2022-12-07T10:25:34;6.20;96.80
4677;DHT22;2352;48.180;11.478;2022-12-07T10:28:38;6.30;96.10
4677;DHT22;2352;48.180;11.478;2022-12-07T10:31:43;6.30;95.90
4677;DHT22;2352;48.180;11.478;2022-12-07T10:34:47;6.30;95.70
4677;DHT22;2352;48.180;11.478;2022-12-07T10:37:54;6.30;95.80
4677;DHT22;2352;48.180;11.478;2022-12-07T10:41:04;6.40;95.50
4677;DHT22;2352;48.180;11.478;2022-12-07T10:44:21;6.40;95.50
4677;DHT22;2352;48.180;11.478;2022-12-07T10:47:31;6.40;95.50
4677;DHT22;2352;48.180;11.478;2022-12-07T10:50:47;6.40;95.40
4677;DHT22;2352;48.180;11.478;2022-12-07T10:54:07;6.50;95.10
4677;DHT22;2352;48.180;11.478;2022-12-07T10:57:22;6.50;94.50
4677;DHT22;2352;48.180;11.478;2022-12-07T11:00:39;6.50;94.10
4677;DHT22;2352;48.180;11.478;2022-12-07T11:03:53;6.50;93.70
4677;DHT22;2352;48.180;11.478;2022-12-07T11:07:03;6.60;93.60
4677;DHT22;2352;48.180;11.478;2022-12-07T11:10:13;6.70;92.90
4677;DHT22;2352;48.180;11.478;2022-12-07T11:13:27;6.90;92.80
4677;DHT22;2352;48.180;11.478;2022-12-07T11:16:45;6.90;92.90
4677;DHT22;2352;48.180;11.478;2022-12-07T11:20:00;7.10;92.10
4677;DHT22;2352;48.180;11.478;2022-12-07T11:23:11;7.30;92.80
4677;DHT22;2352;48.180;11.478;2022-12-07T11:26:26;7.50;91.70
4677;DHT22;2352;48.180;11.478;2022-12-07T11:30:08;7.60;90.70
4677;DHT22;2352;48.180;11.478;2022-12-07T11:33:21;7.70;90.80
4677;DHT22;2352;48.180;11.478;2022-12-07T11:36:37;7.90;90.40
4677;DHT22;2352;48.180;11.478;2022-12-07T11:39:44;7.90;90.10
4677;DHT22;2352;48.180;11.478;2022-12-07T11:42:54;7.80;89.20
4677;DHT22;2352;48.180;11.478;2022-12-07T11:46:02;7.80;88.00
4677;DHT22;2352;48.180;11.478;2022-12-07T11:49:13;7.90;87.80
4677;DHT22;2352;48.180;11.478;2022-12-07T11:52:22;7.90;87.10
4677;DHT22;2352;48.180;11.478;2022-12-07T11:55:32;7.90;87.00
4677;DHT22;2352;48.180;11.478;2022-12-07T11:58:49;8.00;85.70
4677;DHT22;2352;48.180;11.478;2022-12-07T12:01:57;7.90;84.50
4677;DHT22;2352;48.180;11.478;2022-12-07T12:05:12;7.80;85.60
4677;DHT22;2352;48.180;11.478;2022-12-07T12:08:19;7.80;86.50
4677;DHT22;2352;48.180;11.478;2022-12-07T12:15:47;7.90;86.80
4677;DHT22;2352;48.180;11.478;2022-12-07T12:19:05;7.90;88.80
4677;DHT22;2352;48.180;11.478;2022-12-07T12:22:16;7.90;87.30
4677;DHT22;2352;48.180;11.478;2022-12-07T12:25:22;7.90;86.70
4677;DHT22;2352;48.180;11.478;2022-12-07T12:28:29;7.90;87.10
4677;DHT22;2352;48.180;11.478;2022-12-07T12:31:36;7.90;85.70
4677;DHT22;2352;48.180;11.478;2022-12-07T12:34:57;7.90;86.60
4677;DHT22;2352;48.180;11.478;2022-12-07T12:38:32;7.80;87.40
4677;DHT22;2352;48.180;11.478;2022-12-07T12:41:54;7.80;89.10
4677;DHT22;2352;48.180;11.478;2022-12-07T12:45:20;7.70;87.70
4677;DHT22;2352;48.180;11.478;2022-12-07T12:48:28;7.80;87.20
4677;DHT22;2352;48.180;11.478;2022-12-07T12:51:38;7.90;87.50
4677;DHT22;2352;48.180;11.478;2022-12-07T12:54:59;7.90;86.90
4677;DHT22;2352;48.180;11.478;2022-12-07T12:58:33;7.90;86.60
4677;DHT22;2352;48.180;11.478;2022-12-07T13:01:40;8.00;86.90
4677;DHT22;2352;48.180;11.478;2022-12-07T13:04:53;7.90;86.50
4677;DHT22;2352;48.180;11.478;2022-12-07T13:07:59;7.90;87.50
4677;DHT22;2352;48.180;11.478;2022-12-07T13:11:18;7.90;87.10
4677;DHT22;2352;48.180;11.478;2022-12-07T13:14:55;7.90;87.30
4677;DHT22;2352;48.180;11.478;2022-12-07T13:18:04;7.90;86.50
4677;DHT22;2352;48.180;11.478;2022-12-07T13:21:43;7.90;85.80
4677;DHT22;2352;48.180;11.478;2022-12-07T13:24:46;8.00;86.60
4677;DHT22;2352;48.180;11.478;2022-12-07T13:27:59;8.00;85.50
4677;DHT22;2352;48.180;11.478;2022-12-07T13:31:29;8.00;85.10
4677;DHT22;2352;48.180;11.478;2022-12-07T13:34:34;7.90;85.50
4677;DHT22;2352;48.180;11.478;2022-12-07T13:37:38;8.00;85.90
4677;DHT22;2352;48.180;11.478;2022-12-07T13:40:41;7.90;86.20
4677;DHT22;2352;48.180;11.478;2022-12-07T13:43:49;7.90;87.10
4677;DHT22;2352;48.180;11.478;2022-12-07T13:46:57;8.00;86.40
4677;DHT22;2352;48.180;11.478;2022-12-07T13:50:20;8.00;86.20
4677;DHT22;2352;48.180;11.478;2022-12-07T13:53:24;8.00;87.00
4677;DHT22;2352;48.180;11.478;2022-12-07T13:56:32;8.00;87.30
4677;DHT22;2352;48.180;11.478;2022-12-07T13:59:38;8.00;86.60
4677;DHT22;2352;48.180;11.478;2022-12-07T14:02:55;7.90;86.50
4677;DHT22;2352;48.180;11.478;2022-12-07T14:06:13;7.90;86.80
4677;DHT22;2352;48.180;11.478;2022-12-07T14:09:19;7.80;87.70
4677;DHT22;2352;48.180;11.478;2022-12-07T14:12:23;7.80;87.50
4677;DHT22;2352;48.180;11.478;2022-12-07T14:15:29;7.80;87.10
4677;DHT22;2352;48.180;11.478;2022-12-07T14:18:37;7.80;85.80
4677;DHT22;2352;48.180;11.478;2022-12-07T14:21:40;7.90;84.50
4677;DHT22;2352;48.180;11.478;2022-12-07T14:24:43;7.80;83.80
4677;DHT22;2352;48.180;11.478;2022-12-07T14:27:54;7.70;83.70
4677;DHT22;2352;48.180;11.478;2022-12-07T14:31:01;7.70;84.70
4677;DHT22;2352;48.180;11.478;2022-12-07T14:34:05;7.70;83.40
4677;DHT22;2352;48.180;11.478;2022-12-07T14:37:08;7.70;84.30
4677;DHT22;2352;48.180;11.478;2022-12-07T14:40:13;7.80;84.00
4677;DHT22;2352;48.180;11.478;2022-12-07T14:43:17;7.70;85.60
4677;DHT22;2352;48.180;11.478;2022-12-07T14:46:22;7.80;84.50
4677;DHT22;2352;48.180;11.478;2022-12-07T14:49:25;7.80;84.10
4677;DHT22;2352;48.180;11.478;2022-12-07T14:52:36;7.70;84.50
4677;DHT22;2352;48.180;11.478;2022-12-07T14:55:58;7.70;84.30
4677;DHT22;2352;48.180;11.478;2022-12-07T14:59:01;7.80;86.80
4677;DHT22;2352;48.180;11.478;2022-12-07T15:02:06;7.80;87.80
4677;DHT22;2352;48.180;11.478;2022-12-07T15:05:12;7.80;88.60
4677;DHT22;2352;48.180;11.478;2022-12-07T15:08:17;7.80;89.30
4677;DHT22;2352;48.180;11.478;2022-12-07T15:11:20;7.90;89.90
4677;DHT22;2352;48.180;11.478;2022-12-07T15:14:23;7.80;90.00
4677;DHT22;2352;48.180;11.478;2022-12-07T15:17:28;7.90;90.10
4677;DHT22;2352;48.180;11.478;2022-12-07T15:20:33;7.90;90.20
4677;DHT22;2352;48.180;11.478;2022-12-07T15:23:36;7.80;90.30
4677;DHT22;2352;48.180;11.478;2022-12-07T15:26:39;7.80;90.40
4677;DHT22;2352;48.180;11.478;2022-12-07T15:29:42;7.80;90.60
4677;DHT22;2352;48.180;11.478;2022-12-07T15:32:50;7.80;90.70
4677;DHT22;2352;48.180;11.478;2022-12-07T15:35:53;7.80;90.80
4677;DHT22;2352;48.180;11.478;2022-12-07T15:38:56;7.80;90.80
4677;DHT22;2352;48.180;11.478;2022-12-07T15:42:15;7.80;91.00
4677;DHT22;2352;48.180;11.478;2022-12-07T15:45:18;7.70;91.00
4677;DHT22;2352;48.180;11.478;2022-12-07T15:48:22;7.70;91.00
4677;DHT22;2352;48.180;11.478;2022-12-07T15:51:29;7.70;91.10
4677;DHT22;2352;48.180;11.478;2022-12-07T15:54:33;7.60;91.30
4677;DHT22;2352;48.180;11.478;2022-12-07T15:57:37;7.70;91.50
4677;DHT22;2352;48.180;11.478;2022-12-07T16:00:40;7.70;91.40
4677;DHT22;2352;48.180;11.478;2022-12-07T16:03:45;7.60;91.40
4677;DHT22;2352;48.180;11.478;2022-12-07T16:06:48;7.60;91.60
4677;DHT22;2352;48.180;11.478;2022-12-07T16:09:52;7.50;91.80
4677;DHT22;2352;48.180;11.478;2022-12-07T16:12:55;7.40;91.90
4677;DHT22;2352;48.180;11.478;2022-12-07T16:15:58;7.60;91.90
4677;DHT22;2352;48.180;11.478;2022-12-07T16:19:05;7.50;91.90
4677;DHT22;2352;48.180;11.478;2022-12-07T16:22:09;7.60;91.80
4677;DHT22;2352;48.180;11.478;2022-12-07T16:25:12;7.60;91.70
4677;DHT22;2352;48.180;11.478;2022-12-07T16:28:15;7.40;91.50
4677;DHT22;2352;48.180;11.478;2022-12-07T16:31:20;7.40;91.90
4677;DHT22;2352;48.180;11.478;2022-12-07T16:34:25;7.40;92.00
4677;DHT22;2352;48.180;11.478;2022-12-07T16:37:27;7.30;92.00
4677;DHT22;2352;48.180;11.478;2022-12-07T16:40:30;7.40;92.30
4677;DHT22;2352;48.180;11.478;2022-12-07T16:43:34;7.40;92.30
4677;DHT22;2352;48.180;11.478;2022-12-07T16:46:37;7.30;92.10
4677;DHT22;2352;48.180;11.478;2022-12-07T16:49:42;7.50;91.80
4677;DHT22;2352;48.180;11.478;2022-12-07T16:52:45;7.50;91.70
4677;DHT22;2352;48.180;11.478;2022-12-07T16:55:48;7.50;91.50
4677;DHT22;2352;48.180;11.478;2022-12-07T16:58:52;7.40;91.60
4677;DHT22;2352;48.180;11.478;2022-12-07T17:01:54;7.30;91.90
4677;DHT22;2352;48.180;11.478;2022-12-07T17:04:59;7.30;92.00
4677;DHT22;2352;48.180;11.478;2022-12-07T17:08:03;7.30;91.70
4677;DHT22;2352;48.180;11.478;2022-12-07T17:11:10;7.20;91.60
4677;DHT22;2352;48.180;11.478;2022-12-07T17:14:13;7.20;91.40
4677;DHT22;2352;48.180;11.478;2022-12-07T17:17:34;7.10;91.70
4677;DHT22;2352;48.180;11.478;2022-12-07T17:20:38;7.20;91.50
4677;DHT22;2352;48.180;11.478;2022-12-07T17:23:41;7.10;91.50
4677;DHT22;2352;48.180;11.478;2022-12-07T17:26:45;7.00;91.70
4677;DHT22;2352;48.180;11.478;2022-12-07T17:29:48;6.90;91.70
4677;DHT22;2352;48.180;11.478;2022-12-07T17:32:51;6.90;91.70
4677;DHT22;2352;48.180;11.478;2022-12-07T17:35:55;6.90;91.70
4677;DHT22;2352;48.180;11.478;2022-12-07T17:38:58;6.90;91.90
4677;DHT22;2352;48.180;11.478;2022-12-07T17:42:01;6.90;91.90
4677;DHT22;2352;48.180;11.478;2022-12-07T17:45:21;6.90;91.70
4677;DHT22;2352;48.180;11.478;2022-12-07T17:48:25;6.80;92.00
4677;DHT22;2352;48.180;11.478;2022-12-07T17:51:29;6.80;92.20
4677;DHT22;2352;48.180;11.478;2022-12-07T17:54:51;6.80;92.30
4677;DHT22;2352;48.180;11.478;2022-12-07T17:57:54;6.70;92.30
4677;DHT22;2352;48.180;11.478;2022-12-07T18:00:57;6.70;92.30
4677;DHT22;2352;48.180;11.478;2022-12-07T18:04:00;6.70;92.20
4677;DHT22;2352;48.180;11.478;2022-12-07T18:07:04;6.70;92.50
4677;DHT22;2352;48.180;11.478;2022-12-07T18:10:08;6.60;92.30
4677;DHT22;2352;48.180;11.478;2022-12-07T18:13:13;6.60;92.40
4677;DHT22;2352;48.180;11.478;2022-12-07T18:16:33;6.50;92.20
4677;DHT22;2352;48.180;11.478;2022-12-07T18:19:36;6.50;92.00
4677;DHT22;2352;48.180;11.478;2022-12-07T18:22:41;6.50;92.00
4677;DHT22;2352;48.180;11.478;2022-12-07T18:25:46;6.50;91.90
4677;DHT22;2352;48.180;11.478;2022-12-07T18:28:50;6.40;92.10
4677;DHT22;2352;48.180;11.478;2022-12-07T18:31:53;6.50;91.90
4677;DHT22;2352;48.180;11.478;2022-12-07T18:34:56;6.40;91.80
4677;DHT22;2352;48.180;11.478;2022-12-07T18:38:00;6.50;92.00
4677;DHT22;2352;48.180;11.478;2022-12-07T18:41:06;6.50;91.90
4677;DHT22;2352;48.180;11.478;2022-12-07T18:44:10;6.50;91.90
4677;DHT22;2352;48.180;11.478;2022-12-07T18:47:13;6.50;92.10
4677;DHT22;2352;48.180;11.478;2022-12-07T18:50:16;6.50;92.40
4677;DHT22;2352;48.180;11.478;2022-12-07T18:53:21;6.50;92.00
4677;DHT22;2352;48.180;11.478;2022-12-07T18:56:25;6.40;91.80
4677;DHT22;2352;48.180;11.478;2022-12-07T18:59:28;6.40;91.80
4677;DHT22;2352;48.180;11.478;2022-12-07T19:02:50;6.30;91.80
4677;DHT22;2352;48.180;11.478;2022-12-07T19:05:53;6.30;92.10
4677;DHT22;2352;48.180;11.478;2022-12-07T19:08:59;6.30;92.20
4677;DHT22;2352;48.180;11.478;2022-12-07T19:12:03;6.30;92.20
4677;DHT22;2352;48.180;11.478;2022-12-07T19:15:07;6.30;92.00
4677;DHT22;2352;48.180;11.478;2022-12-07T19:18:11;6.30;92.00
4677;DHT22;2352;48.180;11.478;2022-12-07T19:21:13;6.30;92.00
4677;DHT22;2352;48.180;11.478;2022-12-07T19:24:18;6.40;92.10
4677;DHT22;2352;48.180;11.478;2022-12-07T19:27:25;6.40;91.80
4677;DHT22;2352;48.180;11.478;2022-12-07T19:30:28;6.40;91.50
4677;DHT22;2352;48.180;11.478;2022-12-07T19:33:31;6.50;91.40
4677;DHT22;2352;48.180;11.478;2022-12-07T19:36:34;6.30;91.40
4677;DHT22;2352;48.180;11.478;2022-12-07T19:39:39;6.30;91.60
4677;DHT22;2352;48.180;11.478;2022-12-07T19:42:44;6.20;91.70
4677;DHT22;2352;48.180;11.478;2022-12-07T19:45:47;6.20;91.80
4677;DHT22;2352;48.180;11.478;2022-12-07T19:48:50;6.30;91.80
4677;DHT22;2352;48.180;11.478;2022-12-07T19:51:54;6.20;91.70
4677;DHT22;2352;48.180;11.478;2022-12-07T19:54:59;6.20;91.80
4677;DHT22;2352;48.180;11.478;2022-12-07T19:58:03;6.30;91.70
4677;DHT22;2352;48.180;11.478;2022-12-07T20:01:06;6.20;91.90
4677;DHT22;2352;48.180;11.478;2022-12-07T20:04:11;6.00;92.20
4677;DHT22;2352;48.180;11.478;2022-12-07T20:07:14;6.00;92.50
4677;DHT22;2352;48.180;11.478;2022-12-07T20:10:19;6.00;92.60
4677;DHT22;2352;48.180;11.478;2022-12-07T20:13:26;6.00;92.60
4677;DHT22;2352;48.180;11.478;2022-12-07T20:16:33;5.90;92.80
4677;DHT22;2352;48.180;11.478;2022-12-07T20:19:36;6.00;93.00
4677;DHT22;2352;48.180;11.478;2022-12-07T20:22:39;6.00;92.90